Time;durP1;ratioP1;P1;durP2;ratioP2;P2;SDS_P1;SDS_P2;PMS_P1;PMS_P2;Temp;Humidity;BMP_temperature;BMP_pressure;BME280_temperature;BME280_humidity;BME280_pressure;Samples;Min_cycle;Max_cycle;Signal;HPM_P1;HPM_P2
2021/04/23 00:00:39;;;;;;;25.25;23.65;;;6.40;61.20;;;;;;5094285;28;20251;-76
2021/04/23 00:03:12;;;;;;;24.55;23.08;;;6.30;61.60;;;;;;5094396;28;20335;-77
2021/04/23 00:05:39;;;;;;;26.05;24.15;;;6.20;62.00;;;;;;5093824;28;20315;-75
2021/04/23 00:08:06;;;;;;;25.42;23.92;;;6.20;62.30;;;;;;5094334;28;20199;-76
2021/04/23 00:10:33;;;;;;;24.67;23.00;;;6.30;62.40;;;;;;5094200;28;20255;-75
2021/04/23 00:13:00;;;;;;;25.52;23.98;;;6.20;62.60;;;;;;5093775;28;20222;-76
2021/04/23 00:15:26;;;;;;;26.95;25.05;;;6.00;62.60;;;;;;5093692;28;20234;-80
2021/04/23 00:17:53;;;;;;;26.73;24.40;;;5.90;63.20;;;;;;5093986;28;20203;-76
2021/04/23 00:20:26;;;;;;;25.20;23.42;;;5.80;63.40;;;;;;5094012;28;20264;-76
2021/04/23 00:22:53;;;;;;;25.92;24.52;;;5.90;63.50;;;;;;5093926;28;20218;-76
2021/04/23 00:25:25;;;;;;;25.58;23.67;;;5.80;64.30;;;;;;5093748;28;20251;-75
2021/04/23 00:27:53;;;;;;;25.45;23.65;;;5.70;64.60;;;;;;5093934;28;20203;-75
2021/04/23 00:30:21;;;;;;;26.42;24.67;;;5.70;64.60;;;;;;5093446;28;20215;-75
2021/04/23 00:32:54;;;;;;;26.83;24.77;;;5.80;64.50;;;;;;5093762;28;20200;-75
2021/04/23 00:35:22;;;;;;;26.02;23.92;;;5.80;64.60;;;;;;5093686;28;20240;-75
2021/04/23 00:37:51;;;;;;;25.90;24.30;;;5.80;64.70;;;;;;5093360;28;20199;-75
2021/04/23 00:40:21;;;;;;;25.75;23.80;;;5.80;64.70;;;;;;5093679;28;20633;-75
2021/04/23 00:42:48;;;;;;;25.08;23.30;;;5.70;64.80;;;;;;5093818;28;20277;-75
2021/04/23 00:45:16;;;;;;;25.10;23.40;;;5.70;64.90;;;;;;5093578;28;20291;-75
2021/04/23 00:47:45;;;;;;;25.10;23.65;;;5.70;64.90;;;;;;5092774;28;20211;-75
2021/04/23 00:50:13;;;;;;;25.25;23.63;;;5.60;65.20;;;;;;5093448;28;20351;-75
2021/04/23 00:52:39;;;;;;;26.13;24.13;;;5.60;65.10;;;;;;5093497;28;20199;-75
2021/04/23 00:55:07;;;;;;;25.40;23.75;;;5.60;65.10;;;;;;5093268;28;20221;-75
2021/04/23 00:57:35;;;;;;;25.88;24.02;;;5.50;65.20;;;;;;5092797;28;20195;-75
2021/04/23 01:00:01;;;;;;;24.67;23.08;;;5.40;65.30;;;;;;5093367;28;20276;-75
2021/04/23 01:02:28;;;;;;;24.10;22.75;;;5.40;65.30;;;;;;5093191;28;20317;-75
2021/04/23 01:04:54;;;;;;;24.52;23.00;;;5.40;65.50;;;;;;5093079;28;20631;-75
2021/04/23 01:07:21;;;;;;;25.73;24.23;;;5.30;66.10;;;;;;5092772;28;20222;-76
2021/04/23 01:09:47;;;;;;;26.17;24.50;;;5.30;66.30;;;;;;5093252;28;20207;-76
2021/04/23 01:12:13;;;;;;;24.55;22.95;;;5.10;66.60;;;;;;5093242;28;20207;-76
2021/04/23 01:14:41;;;;;;;24.45;22.85;;;5.10;66.60;;;;;;5093191;28;20282;-76
2021/04/23 01:17:07;;;;;;;24.60;23.10;;;5.10;66.30;;;;;;5092529;28;20321;-76
2021/04/23 01:19:34;;;;;;;23.77;22.40;;;5.00;67.00;;;;;;5093081;28;20195;-76
2021/04/23 01:22:02;;;;;;;25.23;23.65;;;4.90;67.80;;;;;;5092384;28;20737;-76
2021/04/23 01:24:29;;;;;;;25.80;23.83;;;5.00;67.60;;;;;;5093014;28;20699;-76
2021/04/23 01:26:56;;;;;;;24.85;23.35;;;5.00;67.40;;;;;;5092015;28;20215;-75
2021/04/23 01:29:24;;;;;;;26.25;24.55;;;5.00;67.10;;;;;;5092699;28;20195;-76
2021/04/23 01:31:53;;;;;;;25.80;24.20;;;5.00;67.30;;;;;;5092620;28;20271;-75
2021/04/23 01:34:24;;;;;;;25.08;23.60;;;5.00;67.40;;;;;;5092698;28;20240;-75
2021/04/23 01:36:52;;;;;;;24.52;23.13;;;5.00;67.40;;;;;;5092099;28;20256;-76
2021/04/23 01:39:23;;;;;;;25.58;23.88;;;5.00;67.70;;;;;;5092719;28;20802;-74
2021/04/23 01:41:50;;;;;;;24.50;22.98;;;5.00;67.60;;;;;;5092280;28;20595;-75
2021/04/23 01:44:18;;;;;;;26.40;24.55;;;5.00;67.50;;;;;;5092189;28;20203;-75
2021/04/23 01:46:45;;;;;;;26.13;24.50;;;5.00;67.10;;;;;;5091816;28;20222;-76
2021/04/23 01:49:15;;;;;;;25.48;23.80;;;5.00;67.10;;;;;;5092509;28;20290;-75
2021/04/23 01:51:43;;;;;;;26.02;24.05;;;5.00;67.50;;;;;;5092531;28;20317;-75
2021/04/23 01:54:11;;;;;;;25.98;24.27;;;4.90;69.40;;;;;;5092400;28;20234;-75
2021/04/23 01:56:38;;;;;;;25.95;24.55;;;4.80;71.70;;;;;;5091727;28;20282;-76
2021/04/23 01:59:05;;;;;;;25.90;24.23;;;4.80;70.90;;;;;;5092304;28;20285;-76
2021/04/23 02:01:32;;;;;;;26.02;23.98;;;4.70;69.50;;;;;;5092348;28;20331;-75
2021/04/23 02:03:59;;;;;;;25.48;23.80;;;4.70;69.20;;;;;;5092306;28;20230;-75
2021/04/23 02:06:26;;;;;;;25.80;24.20;;;4.60;69.20;;;;;;5091591;28;20279;-75
2021/04/23 02:08:53;;;;;;;25.17;23.67;;;4.50;69.50;;;;;;5092206;28;20613;-76
2021/04/23 02:11:21;;;;;;;25.20;23.67;;;4.50;69.50;;;;;;5092250;28;20215;-76
2021/04/23 02:13:51;;;;;;;25.70;24.05;;;4.60;69.00;;;;;;5092230;28;20290;-75
2021/04/23 02:16:18;;;;;;;25.42;23.60;;;4.60;68.70;;;;;;5091601;28;20558;-76
2021/04/23 02:18:46;;;;;;;26.35;24.65;;;4.70;68.60;;;;;;5092112;28;20231;-75
2021/04/23 02:21:13;;;;;;;25.55;23.95;;;4.60;68.90;;;;;;5091705;28;20298;-75
2021/04/23 02:23:41;;;;;;;28.52;26.13;;;4.60;69.10;;;;;;5092069;28;20199;-76
2021/04/23 02:26:08;;;;;;;27.98;26.10;;;4.40;69.40;;;;;;5091388;28;20693;-77
2021/04/23 02:28:34;;;;;;;25.75;24.02;;;4.40;69.70;;;;;;5091946;28;20200;-77
2021/04/23 02:31:05;;;;;;;25.98;24.08;;;4.40;69.80;;;;;;5092245;28;20219;-77
2021/04/23 02:33:32;;;;;;;25.60;23.85;;;4.30;70.20;;;;;;5092190;28;20657;-77
2021/04/23 02:36:00;;;;;;;26.48;24.60;;;4.30;70.20;;;;;;5091471;28;20195;-77
2021/04/23 02:38:27;;;;;;;25.65;23.75;;;4.30;69.90;;;;;;5091928;28;20195;-77
2021/04/23 02:40:54;;;;;;;26.40;24.60;;;4.30;69.80;;;;;;5091979;28;20215;-77
2021/04/23 02:43:25;;;;;;;27.02;25.02;;;4.20;70.30;;;;;;5091955;28;20195;-78
2021/04/23 02:45:52;;;;;;;26.23;24.38;;;4.10;70.60;;;;;;5091418;28;20215;-77
2021/04/23 02:48:22;;;;;;;25.10;23.38;;;4.10;70.70;;;;;;5091738;28;20292;-77
2021/04/23 02:50:51;;;;;;;25.83;24.13;;;4.10;70.80;;;;;;5091790;28;20245;-77
2021/04/23 02:53:18;;;;;;;26.40;24.77;;;4.10;71.10;;;;;;5092162;28;20238;-77
2021/04/23 02:55:44;;;;;;;27.80;25.60;;;4.20;70.90;;;;;;5095019;28;20644;-78
2021/04/23 02:58:14;;;;;;;26.70;25.00;;;4.10;70.70;;;;;;5095584;28;20282;-77
2021/04/23 03:00:43;;;;;;;27.38;25.58;;;4.00;71.30;;;;;;5095561;28;20222;-77
2021/04/23 03:03:11;;;;;;;26.08;24.05;;;4.00;79.20;;;;;;5095474;28;20241;-77
2021/04/23 03:05:40;;;;;;;25.83;24.20;;;3.90;77.70;;;;;;5094971;28;20219;-77
2021/04/23 03:08:08;;;;;;;31.42;29.33;;;3.90;74.50;;;;;;5095274;28;20203;-77
2021/04/23 03:10:37;;;;;;;28.35;26.17;;;3.90;72.70;;;;;;5095362;28;20214;-79
2021/04/23 03:13:06;;;;;;;26.25;24.55;;;3.90;71.80;;;;;;5095315;28;20217;-77
2021/04/23 03:15:33;;;;;;;26.98;24.85;;;3.80;71.70;;;;;;5094644;28;20237;-77
2021/04/23 03:18:00;;;;;;;25.67;23.95;;;3.80;71.70;;;;;;5095306;28;20730;-77
2021/04/23 03:20:28;;;;;;;26.33;24.42;;;3.90;71.60;;;;;;5094890;28;20223;-77
2021/04/23 03:22:56;;;;;;;24.83;23.25;;;3.90;71.90;;;;;;5095073;28;20233;-77
2021/04/23 03:25:25;;;;;;;29.35;27.25;;;3.80;71.90;;;;;;5094870;28;20682;-78
2021/04/23 03:27:53;;;;;;;26.83;25.13;;;3.90;71.70;;;;;;5094724;28;20289;-77
2021/04/23 03:30:22;;;;;;;25.58;23.83;;;3.90;71.70;;;;;;5094877;28;20222;-77
2021/04/23 03:32:48;;;;;;;26.13;24.35;;;3.90;71.60;;;;;;5095009;28;20338;-77
2021/04/23 03:35:16;;;;;;;26.15;24.10;;;3.80;71.90;;;;;;5094754;28;20250;-76
2021/04/23 03:37:45;;;;;;;26.48;24.42;;;3.70;72.10;;;;;;5094577;28;20556;-77
2021/04/23 03:40:15;;;;;;;25.65;23.95;;;3.70;72.40;;;;;;5094753;28;20319;-77
2021/04/23 03:42:42;;;;;;;27.17;25.15;;;3.70;72.30;;;;;;5094904;28;20285;-78
2021/04/23 03:45:10;;;;;;;26.35;24.65;;;3.70;72.40;;;;;;5094634;28;20738;-77
2021/04/23 03:47:37;;;;;;;33.67;31.35;;;3.60;72.50;;;;;;5094266;28;20206;-77
2021/04/23 03:50:05;;;;;;;32.05;30.05;;;3.50;72.90;;;;;;5094577;28;21047;-77
2021/04/23 03:52:32;;;;;;;26.42;24.55;;;3.50;73.10;;;;;;5094926;28;20199;-77
2021/04/23 03:54:59;;;;;;;30.52;28.65;;;3.50;72.90;;;;;;5094464;28;20626;-77
2021/04/23 03:57:27;;;;;;;34.35;32.25;;;3.60;72.90;;;;;;5093890;28;20205;-77
2021/04/23 03:59:53;;;;;;;26.70;24.65;;;3.60;72.80;;;;;;5094358;28;20236;-77
2021/04/23 04:02:19;;;;;;;25.92;24.30;;;3.50;73.00;;;;;;5094594;28;20201;-77
2021/04/23 04:04:46;;;;;;;31.05;28.35;;;3.50;73.00;;;;;;5094496;28;20281;-77
2021/04/23 04:07:12;;;;;;;30.65;28.85;;;3.50;73.20;;;;;;5093124;28;20307;-77
2021/04/23 04:09:39;;;;;;;29.27;27.15;;;3.50;73.50;;;;;;5094145;28;20293;-77
2021/04/23 04:12:06;;;;;;;25.60;23.88;;;3.50;73.30;;;;;;5094188;28;20195;-77
2021/04/23 04:14:33;;;;;;;29.42;27.42;;;3.60;73.00;;;;;;5094226;28;20259;-77
2021/04/23 04:17:00;;;;;;;27.98;26.10;;;3.50;73.00;;;;;;5093745;28;20276;-77
2021/04/23 04:19:26;;;;;;;27.02;24.90;;;3.50;73.20;;;;;;5093962;28;20201;-77
2021/04/23 04:21:53;;;;;;;27.92;25.92;;;3.40;73.40;;;;;;5093581;28;20313;-76
2021/04/23 04:24:19;;;;;;;26.45;24.52;;;3.40;73.60;;;;;;5093951;28;20206;-77
2021/04/23 04:26:45;;;;;;;28.23;26.17;;;3.50;73.30;;;;;;5092999;28;20699;-77
2021/04/23 04:29:12;;;;;;;29.95;27.67;;;3.60;73.00;;;;;;5093764;28;20296;-77
2021/04/23 04:31:39;;;;;;;26.58;24.77;;;3.50;73.00;;;;;;5093827;28;20222;-77
2021/04/23 04:34:05;;;;;;;26.98;24.65;;;3.50;73.20;;;;;;5093763;28;20287;-77
2021/04/23 04:36:32;;;;;;;27.45;25.50;;;3.50;73.20;;;;;;5093334;28;20193;-77
2021/04/23 04:38:59;;;;;;;26.15;24.25;;;3.50;73.40;;;;;;5093688;28;20286;-77
2021/04/23 04:41:26;;;;;;;28.35;26.25;;;3.50;73.40;;;;;;5093494;28;20224;-77
2021/04/23 04:43:52;;;;;;;26.48;24.67;;;3.50;73.20;;;;;;5093642;28;20208;-77
2021/04/23 04:46:19;;;;;;;29.30;27.48;;;3.50;73.10;;;;;;5092904;28;20271;-77
2021/04/23 04:48:46;;;;;;;27.60;25.60;;;3.60;73.00;;;;;;5093570;28;20202;-77
2021/04/23 04:51:13;;;;;;;29.42;27.52;;;3.60;72.80;;;;;;5093472;28;20299;-76
2021/04/23 04:53:39;;;;;;;27.50;25.10;;;3.60;73.00;;;;;;5093350;28;20310;-77
2021/04/23 04:56:06;;;;;;;27.90;25.90;;;3.70;73.00;;;;;;5092764;28;20194;-77
2021/04/23 04:58:37;;;;;;;28.88;26.88;;;3.70;72.60;;;;;;5093399;28;20293;-77
2021/04/23 05:01:06;;;;;;;30.95;28.90;;;3.80;72.40;;;;;;5093327;28;20218;-77
2021/04/23 05:03:32;;;;;;;29.17;26.98;;;3.80;72.20;;;;;;5093453;28;20665;-77
2021/04/23 05:06:00;;;;;;;30.48;28.42;;;3.90;72.20;;;;;;5092528;28;20584;-77
2021/04/23 05:08:26;;;;;;;27.98;26.05;;;3.90;72.30;;;;;;5093012;28;20252;-77
2021/04/23 05:10:52;;;;;;;28.50;26.38;;;3.90;72.30;;;;;;5093173;28;20759;-77
2021/04/23 05:13:19;;;;;;;28.02;25.98;;;4.00;72.10;;;;;;5093122;28;20288;-77
2021/04/23 05:15:45;;;;;;;29.10;27.08;;;4.10;71.90;;;;;;5092462;28;20236;-76
2021/04/23 05:18:12;;;;;;;26.52;24.83;;;4.20;71.80;;;;;;5092109;28;20205;-77
2021/04/23 05:20:38;;;;;;;30.52;28.15;;;4.20;72.00;;;;;;5092305;28;20220;-77
2021/04/23 05:23:07;;;;;;;28.20;26.23;;;4.30;71.80;;;;;;5092869;28;20198;-77
2021/04/23 05:25:35;;;;;;;27.88;26.02;;;4.40;71.40;;;;;;5092406;28;20222;-77
2021/04/23 05:28:02;;;;;;;27.08;25.02;;;4.40;71.10;;;;;;5092650;28;20266;-78
2021/04/23 05:30:31;;;;;;;30.00;27.27;;;4.40;71.20;;;;;;5092797;28;20226;-77
2021/04/23 05:32:59;;;;;;;35.03;29.10;;;4.40;71.10;;;;;;5092876;28;20205;-77
2021/04/23 05:35:25;;;;;;;30.65;28.35;;;4.50;77.90;;;;;;5092537;28;20202;-77
2021/04/23 05:37:52;;;;;;;28.42;26.00;;;4.60;79.90;;;;;;5092486;28;20199;-77
2021/04/23 05:40:24;;;;;;;26.92;24.50;;;4.70;81.10;;;;;;5092731;28;20219;-77
2021/04/23 05:42:51;;;;;;;30.13;27.73;;;4.80;77.10;;;;;;5092724;28;20230;-77
2021/04/23 05:45:18;;;;;;;28.23;26.02;;;5.00;77.70;;;;;;5092570;28;20199;-77
2021/04/23 05:47:45;;;;;;;29.88;27.52;;;5.00;74.50;;;;;;5091797;28;20610;-76
2021/04/23 05:50:14;;;;;;;27.70;25.80;;;5.20;71.90;;;;;;5092376;28;20219;-77
2021/04/23 05:52:42;;;;;;;31.23;28.75;;;5.30;69.80;;;;;;5092525;28;20224;-78
2021/04/23 05:55:11;;;;;;;30.45;28.27;;;5.40;69.10;;;;;;5092352;28;20242;-77
2021/04/23 05:57:39;;;;;;;27.92;26.02;;;5.50;68.70;;;;;;5092057;28;20193;-77
2021/04/23 06:00:09;;;;;;;29.67;27.42;;;5.60;68.40;;;;;;5092230;28;20216;-77
2021/04/23 06:02:35;;;;;;;31.20;28.85;;;5.70;68.00;;;;;;5092383;28;20205;-78
2021/04/23 06:05:02;;;;;;;28.85;26.90;;;5.80;67.90;;;;;;5092295;28;20682;-76
2021/04/23 06:07:28;;;;;;;27.77;25.55;;;6.00;67.50;;;;;;5091729;28;20310;-77
2021/04/23 06:09:55;;;;;;;29.02;26.83;;;6.10;67.00;;;;;;5092230;28;20282;-77
2021/04/23 06:12:21;;;;;;;29.23;26.90;;;6.30;66.80;;;;;;5092396;28;20671;-77
2021/04/23 06:14:49;;;;;;;29.95;27.50;;;6.40;66.20;;;;;;5091922;28;20283;-77
2021/04/23 06:17:15;;;;;;;30.20;27.88;;;6.50;67.80;;;;;;5091570;28;20605;-77
2021/04/23 06:19:41;;;;;;;31.02;28.40;;;6.60;66.40;;;;;;5092154;28;20202;-76
2021/04/23 06:22:08;;;;;;;28.73;26.92;;;6.70;65.00;;;;;;5091603;28;20685;-77
2021/04/23 06:24:36;;;;;;;31.35;28.95;;;6.90;65.60;;;;;;5092241;28;20233;-77
2021/04/23 06:27:02;;;;;;;29.92;27.70;;;7.00;64.20;;;;;;5091461;28;20221;-77
2021/04/23 06:29:29;;;;;;;29.88;27.77;;;7.30;63.90;;;;;;5094262;28;20243;-77
2021/04/23 06:31:56;;;;;;;30.67;28.17;;;7.40;63.20;;;;;;5096265;28;20217;-78
2021/04/23 06:34:23;;;;;;;31.65;29.35;;;7.50;62.60;;;;;;5096507;28;20201;-77
2021/04/23 06:36:49;;;;;;;30.45;28.23;;;7.70;62.30;;;;;;5095732;28;20299;-77
2021/04/23 06:39:18;;;;;;;30.70;27.55;;;7.90;61.30;;;;;;5096449;28;20246;-77
2021/04/23 06:41:45;;;;;;;35.65;32.20;;;7.90;60.60;;;;;;5096249;28;20220;-77
2021/04/23 06:44:12;;;;;;;31.40;29.08;;;7.80;61.40;;;;;;5096162;28;20199;-77
2021/04/23 06:46:38;;;;;;;33.72;30.90;;;8.00;61.60;;;;;;5095747;28;20305;-78
2021/04/23 06:49:05;;;;;;;33.83;31.23;;;8.10;61.10;;;;;;5096406;28;20195;-77
2021/04/23 06:51:32;;;;;;;35.17;32.22;;;8.10;61.30;;;;;;5096479;28;20301;-77
2021/04/23 06:53:59;;;;;;;30.63;28.20;;;8.20;61.40;;;;;;5096478;28;20227;-77
2021/04/23 06:56:25;;;;;;;33.38;30.40;;;8.20;61.00;;;;;;5099108;28;20383;-78
2021/04/23 06:58:52;;;;;;;32.08;29.58;;;8.30;60.80;;;;;;5105572;28;20199;-77
2021/04/23 07:01:18;;;;;;;32.17;29.60;;;8.30;61.00;;;;;;5096119;28;20317;-77
2021/04/23 07:03:44;;;;;;;33.65;31.25;;;8.40;61.20;;;;;;5096131;28;20229;-77
2021/04/23 07:06:12;;;;;;;33.97;31.20;;;8.50;61.50;;;;;;5096542;28;20247;-77
2021/04/23 07:08:39;;;;;;;33.88;31.33;;;8.70;60.10;;;;;;5095821;28;20231;-77
2021/04/23 07:11:06;;;;;;;31.90;29.52;;;8.80;59.00;;;;;;5095389;28;20294;-76
2021/04/23 07:13:33;;;;;;;34.30;31.42;;;8.80;58.80;;;;;;5095792;28;20203;-78
2021/04/23 07:15:59;;;;;;;33.63;30.45;;;9.00;58.10;;;;;;5095084;28;20362;-77
2021/04/23 07:18:27;;;;;;;31.88;29.40;;;9.00;58.00;;;;;;5095496;28;20279;-77
2021/04/23 07:20:53;;;;;;;35.83;32.47;;;9.10;57.60;;;;;;5094845;28;20226;-77
2021/04/23 07:23:21;;;;;;;32.75;29.75;;;9.20;57.30;;;;;;5095761;28;20238;-77
2021/04/23 07:25:47;;;;;;;31.60;29.50;;;9.30;56.60;;;;;;5094594;28;20252;-78
2021/04/23 07:28:14;;;;;;;32.75;30.35;;;9.30;56.30;;;;;;5095175;28;20623;-78
2021/04/23 07:30:42;;;;;;;35.63;30.20;;;9.40;56.10;;;;;;5095156;28;20306;-78
2021/04/23 07:33:12;;;;;;;31.77;29.27;;;9.50;55.60;;;;;;5095173;28;20238;-77
2021/04/23 07:35:39;;;;;;;33.00;30.70;;;9.60;55.40;;;;;;5094585;28;20291;-77
2021/04/23 07:38:05;;;;;;;31.67;29.15;;;9.80;55.10;;;;;;5094973;28;20195;-77
2021/04/23 07:40:33;;;;;;;31.55;29.15;;;9.80;54.90;;;;;;5093941;28;20215;-78
2021/04/23 07:43:00;;;;;;;32.90;30.00;;;9.80;54.60;;;;;;5095363;28;20199;-77
2021/04/23 07:45:28;;;;;;;32.38;29.80;;;9.90;54.80;;;;;;5094952;28;20206;-77
2021/04/23 07:47:55;;;;;;;33.17;30.35;;;10.00;54.80;;;;;;5094845;28;20223;-77
2021/04/23 07:50:23;;;;;;;34.45;31.10;;;10.10;54.70;;;;;;5095170;28;20252;-77
2021/04/23 07:52:51;;;;;;;31.30;28.83;;;10.20;54.70;;;;;;5094925;28;20209;-77
2021/04/23 07:55:18;;;;;;;32.63;29.95;;;10.20;54.80;;;;;;5094958;28;20195;-77
2021/04/23 07:57:46;;;;;;;31.70;29.10;;;10.30;54.40;;;;;;5094277;28;20283;-77
2021/04/23 08:00:15;;;;;;;31.17;28.80;;;10.50;54.10;;;;;;5094812;28;20301;-77
2021/04/23 08:02:42;;;;;;;33.83;31.48;;;10.60;53.70;;;;;;5094647;28;20278;-77
2021/04/23 08:05:10;;;;;;;33.03;30.43;;;10.60;53.20;;;;;;5094488;28;20200;-77
2021/04/23 08:07:37;;;;;;;30.38;28.27;;;10.60;52.50;;;;;;5093967;28;20489;-78
2021/04/23 08:10:04;;;;;;;33.37;30.57;;;10.70;52.40;;;;;;5094662;28;20247;-77
2021/04/23 08:12:31;;;;;;;30.37;28.10;;;10.80;51.80;;;;;;5094641;28;20536;-77
2021/04/23 08:14:58;;;;;;;32.03;29.42;;;11.00;51.50;;;;;;5094760;28;20465;-76
2021/04/23 08:17:25;;;;;;;35.03;32.53;;;11.10;51.30;;;;;;5093886;28;20226;-77
2021/04/23 08:19:51;;;;;;;31.30;28.80;;;11.10;51.30;;;;;;5094310;28;20449;-77
2021/04/23 08:22:18;;;;;;;30.77;28.13;;;11.20;51.40;;;;;;5093860;28;20492;-77
2021/04/23 08:24:44;;;;;;;30.50;28.10;;;11.10;51.50;;;;;;5094511;28;20627;-77
2021/04/23 08:27:11;;;;;;;30.77;28.30;;;11.20;50.90;;;;;;5093271;28;20564;-77
2021/04/23 08:29:37;;;;;;;37.80;33.70;;;11.30;50.90;;;;;;5094087;28;20855;-77
2021/04/23 08:32:06;;;;;;;30.43;28.10;;;11.50;50.70;;;;;;5094025;28;20920;-77
2021/04/23 08:34:32;;;;;;;30.13;27.53;;;11.50;50.20;;;;;;5101787;28;20544;-77
2021/04/23 08:36:59;;;;;;;32.60;29.80;;;11.60;49.80;;;;;;5093344;28;20456;-77
2021/04/23 08:39:25;;;;;;;31.10;28.90;;;11.80;49.80;;;;;;5093913;28;20525;-77
2021/04/23 08:41:52;;;;;;;34.50;31.83;;;11.90;49.40;;;;;;5093773;28;20553;-77
2021/04/23 08:44:18;;;;;;;33.50;30.50;;;11.90;48.70;;;;;;5093865;28;20509;-77
2021/04/23 08:46:45;;;;;;;33.17;30.17;;;11.90;49.00;;;;;;5092993;28;20530;-77
2021/04/23 08:49:17;;;;;;;33.50;30.80;;;12.00;49.10;;;;;;5093637;28;21027;-78
2021/04/23 08:51:44;;;;;;;32.67;30.10;;;12.10;48.10;;;;;;5093556;28;20982;-77
2021/04/23 08:54:11;;;;;;;30.77;28.50;;;12.10;48.00;;;;;;5093800;28;20532;-77
2021/04/23 08:56:38;;;;;;;32.47;29.37;;;12.00;48.50;;;;;;5093241;28;20524;-78
2021/04/23 08:59:04;;;;;;;34.47;31.80;;;12.10;48.60;;;;;;5093662;28;20536;-77
2021/04/23 09:01:31;;;;;;;30.70;28.50;;;12.20;48.00;;;;;;5093584;28;20462;-77
2021/04/23 09:03:58;;;;;;;32.17;29.37;;;12.20;47.90;;;;;;5093691;28;20449;-77
2021/04/23 09:06:28;;;;;;;32.40;30.00;;;12.10;48.10;;;;;;5093298;28;20956;-77
2021/04/23 09:09:07;;;;;;;31.83;29.53;;;12.10;48.00;;;;;;5093459;28;20450;-76
2021/04/23 09:11:36;;;;;;;30.73;28.40;;;12.10;48.30;;;;;;5093415;28;20838;-77
2021/04/23 09:14:05;;;;;;;34.20;31.50;;;12.20;48.10;;;;;;5093473;28;20454;-78
2021/04/23 09:16:53;;;;;;;31.50;29.10;;;12.20;47.90;;;;;;5092898;28;20441;-77
2021/04/23 09:19:23;;;;;;;32.87;30.43;;;12.20;48.00;;;;;;5093272;28;20810;-77
2021/04/23 09:21:53;;;;;;;31.30;28.67;;;12.30;47.80;;;;;;5092670;28;20998;-77
2021/04/23 09:24:22;;;;;;;30.00;27.73;;;12.50;47.50;;;;;;5093217;28;20509;-77
2021/04/23 09:26:49;;;;;;;32.07;29.07;;;12.60;46.90;;;;;;5092135;28;20477;-76
2021/04/23 09:29:25;;;;;;;34.03;31.33;;;12.60;46.80;;;;;;5093305;28;20586;-77
2021/04/23 09:31:52;;;;;;;32.67;29.40;;;12.50;46.70;;;;;;5092949;28;20476;-77
2021/04/23 09:34:19;;;;;;;32.70;29.30;;;12.70;46.40;;;;;;5093282;28;20491;-77
2021/04/23 09:36:47;;;;;;;33.70;30.10;;;12.70;46.70;;;;;;5092530;28;21188;-76
2021/04/23 09:39:16;;;;;;;32.43;29.53;;;12.70;46.80;;;;;;5094512;28;20449;-78
2021/04/23 09:41:44;;;;;;;31.17;28.57;;;12.60;46.80;;;;;;5092875;28;20477;-77
2021/04/23 09:44:32;;;;;;;30.87;28.67;;;12.80;46.40;;;;;;5093166;28;20517;-77
2021/04/23 09:47:01;;;;;;;32.17;29.70;;;12.90;46.20;;;;;;5092325;28;20473;-77
2021/04/23 09:49:28;;;;;;;32.43;30.07;;;13.00;46.10;;;;;;5093868;28;20536;-77
2021/04/23 09:51:54;;;;;;;31.73;28.90;;;13.20;45.90;;;;;;5100066;28;20503;-77
2021/04/23 09:54:23;;;;;;;30.97;28.43;;;13.30;45.90;;;;;;5102939;28;20445;-78
2021/04/23 09:56:50;;;;;;;31.33;28.60;;;13.20;45.70;;;;;;5093292;28;20452;-77
2021/04/23 09:59:19;;;;;;;32.50;30.07;;;13.30;46.00;;;;;;5092609;28;20457;-77
2021/04/23 10:01:58;;;;;;;33.80;31.30;;;13.30;46.00;;;;;;5092427;28;20522;-77
2021/04/23 10:04:28;;;;;;;32.47;29.83;;;13.40;45.90;;;;;;5092174;28;20532;-77
2021/04/23 10:07:15;;;;;;;30.60;28.10;;;13.40;45.80;;;;;;5092169;28;20512;-77
2021/04/23 10:09:50;;;;;;;30.73;28.43;;;13.50;45.70;;;;;;5092573;28;20548;-77
2021/04/23 10:12:32;;;;;;;31.60;28.90;;;13.60;45.20;;;;;;5092607;28;20485;-78
2021/04/23 10:15:00;;;;;;;30.80;28.27;;;13.80;44.80;;;;;;5092441;28;20448;-77
2021/04/23 10:17:26;;;;;;;31.23;28.60;;;13.90;44.00;;;;;;5092278;28;20456;-77
2021/04/23 10:19:54;;;;;;;30.70;28.27;;;13.70;44.40;;;;;;5092428;28;20449;-77
2021/04/23 10:22:21;;;;;;;30.23;27.50;;;13.50;43.30;;;;;;5092223;28;20827;-77
2021/04/23 10:24:49;;;;;;;29.30;27.00;;;13.60;42.80;;;;;;5092443;28;20452;-78
2021/04/23 10:27:17;;;;;;;30.80;28.50;;;13.80;42.70;;;;;;5091961;28;20960;-77
2021/04/23 10:29:45;;;;;;;30.30;27.83;;;13.80;43.20;;;;;;5092072;28;20544;-78
2021/04/23 10:32:12;;;;;;;30.77;28.50;;;13.70;43.90;;;;;;5092142;28;20453;-78
2021/04/23 10:34:40;;;;;;;31.87;29.33;;;13.80;44.40;;;;;;5092280;28;20863;-77
2021/04/23 10:37:07;;;;;;;30.20;27.97;;;13.90;44.50;;;;;;5091483;28;20449;-79
2021/04/23 10:39:35;;;;;;;32.07;29.30;;;14.10;43.70;;;;;;5092021;28;20476;-78
2021/04/23 10:42:04;;;;;;;30.13;27.47;;;14.20;43.60;;;;;;5092170;28;20489;-78
2021/04/23 10:44:58;;;;;;;31.07;28.80;;;14.30;43.50;;;;;;5092264;28;20478;-77
2021/04/23 10:47:31;;;;;;;31.17;28.80;;;14.30;43.30;;;;;;5091745;28;20477;-78
2021/04/23 10:50:09;;;;;;;29.90;27.80;;;14.20;42.60;;;;;;5095086;28;20902;-78
2021/04/23 10:52:35;;;;;;;30.70;28.43;;;14.10;43.00;;;;;;5094839;28;20481;-77
2021/04/23 10:55:07;;;;;;;31.00;28.67;;;14.20;42.80;;;;;;5096128;28;20457;-77
2021/04/23 10:57:53;;;;;;;31.70;29.10;;;14.20;42.50;;;;;;5097243;28;20655;-77
2021/04/23 11:00:34;;;;;;;30.77;28.20;;;14.10;41.60;;;;;;5095387;28;20480;-77
2021/04/23 11:03:22;;;;;;;29.80;27.13;;;14.20;41.10;;;;;;5092936;28;20471;-77
2021/04/23 11:05:49;;;;;;;29.43;27.27;;;14.30;40.50;;;;;;5097827;28;20451;-77
2021/04/23 11:08:16;;;;;;;30.83;27.77;;;14.20;40.60;;;;;;5098995;28;20484;-79
2021/04/23 11:11:12;;;;;;;31.10;28.00;;;14.20;40.80;;;;;;5098977;28;20993;-78
2021/04/23 11:13:41;;;;;;;28.10;26.00;;;14.40;40.20;;;;;;5098135;28;20452;-77
2021/04/23 11:16:27;;;;;;;30.23;28.00;;;14.40;39.50;;;;;;5094514;28;20445;-77
2021/04/23 11:18:55;;;;;;;29.07;26.83;;;14.40;40.10;;;;;;5095567;28;20952;-78
2021/04/23 11:21:38;;;;;;;29.17;27.03;;;14.30;39.80;;;;;;5094862;28;21065;-77
2021/04/23 11:24:13;;;;;;;30.43;27.80;;;14.30;41.20;;;;;;5095508;28;20518;-78
2021/04/23 11:27:04;;;;;;;29.27;27.30;;;14.40;40.80;;;;;;5094513;28;20476;-77
2021/04/23 11:29:33;;;;;;;30.17;28.10;;;14.40;40.20;;;;;;5095165;28;20963;-77
2021/04/23 11:32:14;;;;;;;29.37;27.10;;;14.50;40.40;;;;;;5095319;28;20516;-77
2021/04/23 11:34:43;;;;;;;30.27;27.93;;;14.70;39.80;;;;;;5095646;28;20477;-77
2021/04/23 11:37:11;;;;;;;28.33;26.30;;;14.90;38.60;;;;;;5094461;28;20472;-77
2021/04/23 11:39:42;;;;;;;30.60;28.50;;;15.10;36.50;;;;;;5095053;28;20449;-78
2021/04/23 11:42:15;;;;;;;28.57;26.50;;;15.00;36.60;;;;;;5094998;28;20449;-78
2021/04/23 11:45:03;;;;;;;28.73;26.60;;;15.00;37.20;;;;;;5095132;28;20453;-77
2021/04/23 11:47:35;;;;;;;30.50;28.20;;;15.10;37.60;;;;;;5094266;28;20830;-77
2021/04/23 11:50:09;;;;;;;30.57;28.27;;;15.30;38.20;;;;;;5094812;28;20468;-77
2021/04/23 11:52:36;;;;;;;29.70;27.30;;;15.30;39.00;;;;;;5094805;28;20456;-77
2021/04/23 11:55:14;;;;;;;29.10;26.70;;;15.30;38.30;;;;;;5094592;28;20536;-79
2021/04/23 11:57:40;;;;;;;28.70;26.70;;;15.40;37.90;;;;;;5094479;28;20814;-77
2021/04/23 12:00:11;;;;;;;32.57;29.77;;;15.30;37.90;;;;;;5094982;28;20469;-77
2021/04/23 12:02:54;;;;;;;29.33;27.23;;;15.40;37.50;;;;;;5094637;28;20453;-77
2021/04/23 12:05:26;;;;;;;29.23;27.23;;;15.40;37.30;;;;;;5094564;28;20548;-76
2021/04/23 12:07:54;;;;;;;32.13;28.80;;;15.40;36.70;;;;;;5094603;28;20530;-77
2021/04/23 12:10:22;;;;;;;30.73;28.53;;;15.40;36.80;;;;;;5094542;28;20521;-77
2021/04/23 12:12:48;;;;;;;29.87;27.50;;;15.50;36.80;;;;;;5094593;28;20935;-77
2021/04/23 12:15:24;;;;;;;28.67;26.70;;;15.60;37.20;;;;;;5094327;28;20564;-77
2021/04/23 12:17:51;;;;;;;28.77;26.70;;;15.70;37.20;;;;;;5094236;28;20452;-78
2021/04/23 12:20:20;;;;;;;28.30;26.57;;;16.00;35.70;;;;;;5094180;28;20478;-77
2021/04/23 12:22:48;;;;;;;29.03;27.07;;;16.20;34.60;;;;;;5093709;28;20462;-77
2021/04/23 12:25:31;;;;;;;28.93;26.83;;;16.10;33.10;;;;;;5094141;28;20456;-77
2021/04/23 12:28:32;;;;;;;27.20;25.53;;;16.00;31.30;;;;;;5093458;28;20571;-78
2021/04/23 12:31:04;;;;;;;30.13;28.00;;;16.30;32.10;;;;;;5093940;28;20978;-77
2021/04/23 12:33:42;;;;;;;30.77;28.67;;;16.30;33.50;;;;;;5094240;28;20509;-77
2021/04/23 12:36:15;;;;;;;28.70;26.70;;;16.40;33.50;;;;;;5093364;28;20453;-78
2021/04/23 12:38:44;;;;;;;30.53;28.20;;;16.40;33.60;;;;;;5093889;28;20958;-78
2021/04/23 12:41:19;;;;;;;29.40;27.17;;;16.40;31.40;;;;;;5093641;28;20469;-77